sensor_id;sensor_type;location;lat;lon;timestamp;P1;durP1;ratioP1;P2;durP2;ratioP2
71312;SDS011;59104;44.738;20.612;2022-09-03T00:02:02;7.53;;;5.32;;
71312;SDS011;59104;44.738;20.612;2022-09-03T00:04:31;8.10;;;5.30;;
71312;SDS011;59104;44.738;20.612;2022-09-03T00:07:02;6.03;;;4.97;;
71312;SDS011;59104;44.738;20.612;2022-09-03T00:09:49;8.23;;;5.22;;
71312;SDS011;59104;44.738;20.612;2022-09-03T00:14:40;5.40;;;3.95;;
71312;SDS011;59104;44.738;20.612;2022-09-03T00:17:08;8.20;;;5.03;;
71312;SDS011;59104;44.738;20.612;2022-09-03T00:19:36;5.80;;;4.72;;
71312;SDS011;59104;44.738;20.612;2022-09-03T00:22:14;8.10;;;5.32;;
71312;SDS011;59104;44.738;20.612;2022-09-03T00:24:41;7.32;;;5.10;;
71312;SDS011;59104;44.738;20.612;2022-09-03T00:27:10;6.00;;;4.95;;
71312;SDS011;59104;44.738;20.612;2022-09-03T00:32:05;8.80;;;5.68;;
71312;SDS011;59104;44.738;20.612;2022-09-03T00:34:35;9.07;;;5.97;;
71312;SDS011;59104;44.738;20.612;2022-09-03T00:37:06;7.38;;;5.38;;
71312;SDS011;59104;44.738;20.612;2022-09-03T00:39:31;7.22;;;4.90;;
71312;SDS011;59104;44.738;20.612;2022-09-03T00:42:04;7.75;;;4.97;;
71312;SDS011;59104;44.738;20.612;2022-09-03T00:54:48;6.97;;;5.70;;
71312;SDS011;59104;44.738;20.612;2022-09-03T01:00:07;7.85;;;5.10;;
71312;SDS011;59104;44.738;20.612;2022-09-03T01:15:34;7.22;;;4.63;;
71312;SDS011;59104;44.738;20.612;2022-09-03T01:18:06;7.72;;;4.70;;
71312;SDS011;59104;44.738;20.612;2022-09-03T01:20:54;8.70;;;4.70;;
71312;SDS011;59104;44.738;20.612;2022-09-03T01:26:02;7.50;;;5.15;;
71312;SDS011;59104;44.738;20.612;2022-09-03T01:31:07;5.50;;;4.53;;
71312;SDS011;59104;44.738;20.612;2022-09-03T01:33:40;6.75;;;4.65;;
71312;SDS011;59104;44.738;20.612;2022-09-03T01:41:05;7.70;;;4.80;;
71312;SDS011;59104;44.738;20.612;2022-09-03T01:46:20;5.93;;;4.90;;
71312;SDS011;59104;44.738;20.612;2022-09-03T01:51:17;8.00;;;4.70;;
71312;SDS011;59104;44.738;20.612;2022-09-03T02:01:33;8.38;;;4.38;;
71312;SDS011;59104;44.738;20.612;2022-09-03T02:04:00;6.57;;;4.78;;
71312;SDS011;59104;44.738;20.612;2022-09-03T02:06:26;6.68;;;4.57;;
71312;SDS011;59104;44.738;20.612;2022-09-03T02:08:52;5.45;;;3.97;;
71312;SDS011;59104;44.738;20.612;2022-09-03T02:11:18;7.97;;;4.85;;
71312;SDS011;59104;44.738;20.612;2022-09-03T02:13:48;8.13;;;4.75;;
71312;SDS011;59104;44.738;20.612;2022-09-03T02:16:15;5.15;;;4.03;;
71312;SDS011;59104;44.738;20.612;2022-09-03T02:18:45;7.05;;;4.80;;
71312;SDS011;59104;44.738;20.612;2022-09-03T02:21:12;7.78;;;4.45;;
71312;SDS011;59104;44.738;20.612;2022-09-03T02:23:39;8.15;;;4.63;;
71312;SDS011;59104;44.738;20.612;2022-09-03T02:26:05;5.65;;;4.68;;
71312;SDS011;59104;44.738;20.612;2022-09-03T02:28:31;7.22;;;5.00;;
71312;SDS011;59104;44.738;20.612;2022-09-03T02:30:57;9.70;;;4.45;;
71312;SDS011;59104;44.738;20.612;2022-09-03T02:33:22;6.55;;;4.72;;
71312;SDS011;59104;44.738;20.612;2022-09-03T02:35:48;6.68;;;4.47;;
71312;SDS011;59104;44.738;20.612;2022-09-03T02:38:15;8.25;;;4.28;;
71312;SDS011;59104;44.738;20.612;2022-09-03T02:40:41;7.45;;;4.70;;
71312;SDS011;59104;44.738;20.612;2022-09-03T02:43:12;7.97;;;4.63;;
71312;SDS011;59104;44.738;20.612;2022-09-03T02:45:41;6.43;;;4.55;;
71312;SDS011;59104;44.738;20.612;2022-09-03T02:48:09;6.70;;;4.93;;
71312;SDS011;59104;44.738;20.612;2022-09-03T02:50:39;8.90;;;4.55;;
71312;SDS011;59104;44.738;20.612;2022-09-03T02:53:04;6.80;;;4.68;;
71312;SDS011;59104;44.738;20.612;2022-09-03T02:55:30;6.93;;;4.53;;
71312;SDS011;59104;44.738;20.612;2022-09-03T02:57:56;7.32;;;5.40;;
71312;SDS011;59104;44.738;20.612;2022-09-03T03:00:21;5.32;;;4.60;;
71312;SDS011;59104;44.738;20.612;2022-09-03T03:02:47;5.50;;;4.45;;
71312;SDS011;59104;44.738;20.612;2022-09-03T03:05:13;6.50;;;4.10;;
71312;SDS011;59104;44.738;20.612;2022-09-03T03:07:41;9.05;;;4.50;;
71312;SDS011;59104;44.738;20.612;2022-09-03T03:10:07;7.53;;;4.63;;
71312;SDS011;59104;44.738;20.612;2022-09-03T03:12:33;5.90;;;4.60;;
71312;SDS011;59104;44.738;20.612;2022-09-03T03:14:59;6.10;;;4.25;;
71312;SDS011;59104;44.738;20.612;2022-09-03T03:17:24;11.43;;;4.50;;
71312;SDS011;59104;44.738;20.612;2022-09-03T03:19:50;5.80;;;4.03;;
71312;SDS011;59104;44.738;20.612;2022-09-03T03:22:16;4.45;;;3.67;;
71312;SDS011;59104;44.738;20.612;2022-09-03T03:24:41;5.40;;;3.60;;
71312;SDS011;59104;44.738;20.612;2022-09-03T03:27:07;6.28;;;4.28;;
71312;SDS011;59104;44.738;20.612;2022-09-03T03:29:35;5.82;;;4.07;;
71312;SDS011;59104;44.738;20.612;2022-09-03T03:32:00;5.60;;;4.47;;
71312;SDS011;59104;44.738;20.612;2022-09-03T03:34:26;5.32;;;4.00;;
71312;SDS011;59104;44.738;20.612;2022-09-03T03:36:51;5.43;;;4.50;;
71312;SDS011;59104;44.738;20.612;2022-09-03T03:39:17;6.03;;;3.90;;
71312;SDS011;59104;44.738;20.612;2022-09-03T03:41:42;10.50;;;3.97;;
71312;SDS011;59104;44.738;20.612;2022-09-03T03:44:08;6.63;;;4.10;;
71312;SDS011;59104;44.738;20.612;2022-09-03T03:46:35;6.70;;;3.92;;
71312;SDS011;59104;44.738;20.612;2022-09-03T03:49:01;5.55;;;3.90;;
71312;SDS011;59104;44.738;20.612;2022-09-03T03:51:26;4.82;;;3.85;;
71312;SDS011;59104;44.738;20.612;2022-09-03T03:53:53;5.00;;;3.45;;
71312;SDS011;59104;44.738;20.612;2022-09-03T03:56:19;5.65;;;4.18;;
71312;SDS011;59104;44.738;20.612;2022-09-03T03:58:44;4.55;;;3.55;;
71312;SDS011;59104;44.738;20.612;2022-09-03T04:01:11;6.32;;;4.68;;
71312;SDS011;59104;44.738;20.612;2022-09-03T04:03:36;6.20;;;4.57;;
71312;SDS011;59104;44.738;20.612;2022-09-03T04:06:02;9.00;;;4.82;;
71312;SDS011;59104;44.738;20.612;2022-09-03T04:08:29;8.65;;;5.07;;
71312;SDS011;59104;44.738;20.612;2022-09-03T04:10:58;8.60;;;4.97;;
71312;SDS011;59104;44.738;20.612;2022-09-03T04:13:27;7.18;;;4.88;;
71312;SDS011;59104;44.738;20.612;2022-09-03T04:15:58;7.20;;;5.07;;
71312;SDS011;59104;44.738;20.612;2022-09-03T04:18:24;10.73;;;5.30;;
71312;SDS011;59104;44.738;20.612;2022-09-03T04:20:49;7.95;;;5.05;;
71312;SDS011;59104;44.738;20.612;2022-09-03T04:23:14;10.27;;;5.20;;
71312;SDS011;59104;44.738;20.612;2022-09-03T04:25:40;6.38;;;4.30;;
71312;SDS011;59104;44.738;20.612;2022-09-03T04:28:06;8.57;;;5.28;;
71312;SDS011;59104;44.738;20.612;2022-09-03T04:30:31;6.22;;;4.30;;
71312;SDS011;59104;44.738;20.612;2022-09-03T04:32:57;6.75;;;4.35;;
71312;SDS011;59104;44.738;20.612;2022-09-03T04:35:24;4.53;;;3.78;;
71312;SDS011;59104;44.738;20.612;2022-09-03T04:37:50;8.80;;;5.20;;
71312;SDS011;59104;44.738;20.612;2022-09-03T04:40:16;5.38;;;4.22;;
71312;SDS011;59104;44.738;20.612;2022-09-03T04:42:41;10.15;;;4.82;;
71312;SDS011;59104;44.738;20.612;2022-09-03T04:45:07;6.32;;;4.03;;
71312;SDS011;59104;44.738;20.612;2022-09-03T04:47:33;4.90;;;4.18;;
71312;SDS011;59104;44.738;20.612;2022-09-03T04:50:00;6.47;;;4.63;;
71312;SDS011;59104;44.738;20.612;2022-09-03T04:52:27;6.13;;;4.50;;
71312;SDS011;59104;44.738;20.612;2022-09-03T04:54:55;6.57;;;4.40;;
71312;SDS011;59104;44.738;20.612;2022-09-03T04:57:21;6.20;;;3.88;;
71312;SDS011;59104;44.738;20.612;2022-09-03T04:59:47;5.97;;;3.97;;
71312;SDS011;59104;44.738;20.612;2022-09-03T05:02:12;4.65;;;4.00;;
71312;SDS011;59104;44.738;20.612;2022-09-03T05:04:40;8.60;;;4.40;;
71312;SDS011;59104;44.738;20.612;2022-09-03T05:07:05;6.63;;;4.60;;
71312;SDS011;59104;44.738;20.612;2022-09-03T05:09:30;9.55;;;5.28;;
71312;SDS011;59104;44.738;20.612;2022-09-03T05:11:56;7.63;;;4.60;;
71312;SDS011;59104;44.738;20.612;2022-09-03T05:14:21;6.80;;;4.90;;
71312;SDS011;59104;44.738;20.612;2022-09-03T05:16:47;5.20;;;3.80;;
71312;SDS011;59104;44.738;20.612;2022-09-03T05:19:12;6.47;;;4.45;;
71312;SDS011;59104;44.738;20.612;2022-09-03T05:21:37;5.65;;;3.55;;
71312;SDS011;59104;44.738;20.612;2022-09-03T05:24:03;6.30;;;4.65;;
71312;SDS011;59104;44.738;20.612;2022-09-03T05:26:30;5.28;;;4.35;;
71312;SDS011;59104;44.738;20.612;2022-09-03T05:29:00;6.93;;;5.50;;
71312;SDS011;59104;44.738;20.612;2022-09-03T05:31:27;8.05;;;4.43;;
71312;SDS011;59104;44.738;20.612;2022-09-03T05:33:53;8.90;;;5.47;;
71312;SDS011;59104;44.738;20.612;2022-09-03T05:36:20;7.13;;;4.85;;
71312;SDS011;59104;44.738;20.612;2022-09-03T05:38:47;9.50;;;5.10;;
71312;SDS011;59104;44.738;20.612;2022-09-03T05:41:13;8.50;;;4.60;;
71312;SDS011;59104;44.738;20.612;2022-09-03T05:43:39;5.85;;;4.10;;
71312;SDS011;59104;44.738;20.612;2022-09-03T05:46:13;7.05;;;5.00;;
71312;SDS011;59104;44.738;20.612;2022-09-03T05:48:42;5.38;;;3.78;;
71312;SDS011;59104;44.738;20.612;2022-09-03T05:51:09;6.07;;;4.45;;
71312;SDS011;59104;44.738;20.612;2022-09-03T05:53:36;5.03;;;4.00;;
71312;SDS011;59104;44.738;20.612;2022-09-03T05:56:05;3.72;;;2.75;;
71312;SDS011;59104;44.738;20.612;2022-09-03T05:58:32;7.10;;;3.97;;
71312;SDS011;59104;44.738;20.612;2022-09-03T06:00:58;8.68;;;5.45;;
71312;SDS011;59104;44.738;20.612;2022-09-03T06:03:24;9.38;;;5.47;;
71312;SDS011;59104;44.738;20.612;2022-09-03T06:05:53;6.45;;;4.00;;
71312;SDS011;59104;44.738;20.612;2022-09-03T06:08:19;9.70;;;4.65;;
71312;SDS011;59104;44.738;20.612;2022-09-03T06:10:44;6.85;;;4.22;;
71312;SDS011;59104;44.738;20.612;2022-09-03T06:13:10;6.80;;;4.38;;
71312;SDS011;59104;44.738;20.612;2022-09-03T06:15:35;7.30;;;5.18;;
71312;SDS011;59104;44.738;20.612;2022-09-03T06:18:01;5.05;;;3.75;;
71312;SDS011;59104;44.738;20.612;2022-09-03T06:20:26;5.80;;;4.13;;
71312;SDS011;59104;44.738;20.612;2022-09-03T06:22:53;7.82;;;4.90;;
71312;SDS011;59104;44.738;20.612;2022-09-03T06:25:18;7.88;;;5.75;;
71312;SDS011;59104;44.738;20.612;2022-09-03T06:27:44;9.13;;;5.00;;
71312;SDS011;59104;44.738;20.612;2022-09-03T06:30:10;6.80;;;3.70;;
71312;SDS011;59104;44.738;20.612;2022-09-03T06:32:45;6.22;;;4.07;;
71312;SDS011;59104;44.738;20.612;2022-09-03T06:35:11;6.72;;;4.07;;
71312;SDS011;59104;44.738;20.612;2022-09-03T06:37:39;5.63;;;3.85;;
71312;SDS011;59104;44.738;20.612;2022-09-03T06:40:06;5.22;;;4.15;;
71312;SDS011;59104;44.738;20.612;2022-09-03T06:42:33;4.93;;;3.75;;
71312;SDS011;59104;44.738;20.612;2022-09-03T06:44:59;4.75;;;2.72;;
71312;SDS011;59104;44.738;20.612;2022-09-03T06:47:24;3.55;;;2.78;;
71312;SDS011;59104;44.738;20.612;2022-09-03T06:49:50;6.40;;;3.55;;
71312;SDS011;59104;44.738;20.612;2022-09-03T06:52:15;5.70;;;3.20;;
71312;SDS011;59104;44.738;20.612;2022-09-03T06:54:41;5.75;;;2.83;;
71312;SDS011;59104;44.738;20.612;2022-09-03T06:57:06;4.75;;;3.70;;
71312;SDS011;59104;44.738;20.612;2022-09-03T06:59:32;5.88;;;4.00;;
71312;SDS011;59104;44.738;20.612;2022-09-03T07:01:57;5.35;;;3.03;;
71312;SDS011;59104;44.738;20.612;2022-09-03T07:04:24;4.57;;;3.22;;
71312;SDS011;59104;44.738;20.612;2022-09-03T07:06:51;3.00;;;2.35;;
71312;SDS011;59104;44.738;20.612;2022-09-03T07:09:17;3.50;;;2.65;;
71312;SDS011;59104;44.738;20.612;2022-09-03T07:11:43;4.72;;;3.40;;
71312;SDS011;59104;44.738;20.612;2022-09-03T07:14:11;7.05;;;3.65;;
71312;SDS011;59104;44.738;20.612;2022-09-03T07:16:37;6.50;;;3.88;;
71312;SDS011;59104;44.738;20.612;2022-09-03T07:19:06;5.22;;;4.18;;
71312;SDS011;59104;44.738;20.612;2022-09-03T07:21:33;6.53;;;3.42;;
71312;SDS011;59104;44.738;20.612;2022-09-03T07:24:00;4.47;;;3.00;;
71312;SDS011;59104;44.738;20.612;2022-09-03T07:26:28;5.40;;;4.00;;
71312;SDS011;59104;44.738;20.612;2022-09-03T07:28:54;6.60;;;4.28;;
71312;SDS011;59104;44.738;20.612;2022-09-03T07:31:33;5.82;;;4.10;;
71312;SDS011;59104;44.738;20.612;2022-09-03T07:34:00;7.68;;;4.45;;
71312;SDS011;59104;44.738;20.612;2022-09-03T07:36:27;4.05;;;3.65;;
71312;SDS011;59104;44.738;20.612;2022-09-03T07:38:53;5.68;;;3.83;;
71312;SDS011;59104;44.738;20.612;2022-09-03T07:41:19;6.60;;;4.40;;
71312;SDS011;59104;44.738;20.612;2022-09-03T07:43:46;6.47;;;3.75;;
71312;SDS011;59104;44.738;20.612;2022-09-03T07:46:15;4.60;;;3.72;;
71312;SDS011;59104;44.738;20.612;2022-09-03T07:48:45;5.95;;;3.45;;
71312;SDS011;59104;44.738;20.612;2022-09-03T07:51:10;4.55;;;3.38;;
71312;SDS011;59104;44.738;20.612;2022-09-03T07:53:36;5.55;;;3.85;;
71312;SDS011;59104;44.738;20.612;2022-09-03T07:56:06;7.00;;;3.20;;
71312;SDS011;59104;44.738;20.612;2022-09-03T07:58:32;4.03;;;2.72;;
71312;SDS011;59104;44.738;20.612;2022-09-03T08:00:58;5.05;;;3.22;;
71312;SDS011;59104;44.738;20.612;2022-09-03T08:03:27;5.20;;;3.47;;
71312;SDS011;59104;44.738;20.612;2022-09-03T08:05:53;4.43;;;2.92;;
71312;SDS011;59104;44.738;20.612;2022-09-03T08:08:19;3.80;;;2.63;;
71312;SDS011;59104;44.738;20.612;2022-09-03T08:10:45;4.20;;;2.92;;
71312;SDS011;59104;44.738;20.612;2022-09-03T08:13:10;4.45;;;2.88;;
71312;SDS011;59104;44.738;20.612;2022-09-03T08:15:36;5.65;;;3.47;;
71312;SDS011;59104;44.738;20.612;2022-09-03T08:18:04;4.75;;;3.55;;
71312;SDS011;59104;44.738;20.612;2022-09-03T08:20:29;4.38;;;2.95;;
71312;SDS011;59104;44.738;20.612;2022-09-03T08:23:01;3.13;;;2.63;;
71312;SDS011;59104;44.738;20.612;2022-09-03T08:25:27;4.63;;;2.55;;
71312;SDS011;59104;44.738;20.612;2022-09-03T08:27:53;5.82;;;3.85;;
71312;SDS011;59104;44.738;20.612;2022-09-03T08:30:18;4.97;;;3.20;;
71312;SDS011;59104;44.738;20.612;2022-09-03T08:32:45;4.00;;;2.88;;
71312;SDS011;59104;44.738;20.612;2022-09-03T08:35:11;4.07;;;3.33;;
71312;SDS011;59104;44.738;20.612;2022-09-03T08:37:37;5.32;;;3.42;;
71312;SDS011;59104;44.738;20.612;2022-09-03T08:40:03;3.40;;;2.80;;
71312;SDS011;59104;44.738;20.612;2022-09-03T08:44:59;5.63;;;3.67;;
71312;SDS011;59104;44.738;20.612;2022-09-03T08:52:47;3.85;;;3.22;;
71312;SDS011;59104;44.738;20.612;2022-09-03T08:57:48;5.05;;;3.17;;
71312;SDS011;59104;44.738;20.612;2022-09-03T09:00:14;5.03;;;3.70;;
71312;SDS011;59104;44.738;20.612;2022-09-03T09:05:37;4.03;;;3.25;;
71312;SDS011;59104;44.738;20.612;2022-09-03T09:08:13;5.57;;;3.22;;
71312;SDS011;59104;44.738;20.612;2022-09-03T09:10:44;4.15;;;3.08;;
71312;SDS011;59104;44.738;20.612;2022-09-03T09:23:30;6.95;;;4.05;;
71312;SDS011;59104;44.738;20.612;2022-09-03T09:25:58;5.78;;;3.10;;
71312;SDS011;59104;44.738;20.612;2022-09-03T09:28:29;4.35;;;3.45;;
71312;SDS011;59104;44.738;20.612;2022-09-03T09:30:57;3.60;;;2.90;;
71312;SDS011;59104;44.738;20.612;2022-09-03T09:33:22;4.70;;;3.58;;
71312;SDS011;59104;44.738;20.612;2022-09-03T09:35:49;7.60;;;3.47;;
71312;SDS011;59104;44.738;20.612;2022-09-03T09:38:14;4.65;;;3.10;;
71312;SDS011;59104;44.738;20.612;2022-09-03T09:40:41;5.72;;;3.42;;
71312;SDS011;59104;44.738;20.612;2022-09-03T09:43:17;4.60;;;4.18;;
71312;SDS011;59104;44.738;20.612;2022-09-03T09:45:46;5.72;;;4.15;;
71312;SDS011;59104;44.738;20.612;2022-09-03T09:51:02;4.65;;;3.60;;
71312;SDS011;59104;44.738;20.612;2022-09-03T09:53:28;4.78;;;3.92;;
71312;SDS011;59104;44.738;20.612;2022-09-03T09:55:55;4.55;;;3.53;;
71312;SDS011;59104;44.738;20.612;2022-09-03T09:58:23;4.25;;;3.75;;
71312;SDS011;59104;44.738;20.612;2022-09-03T10:03:23;3.80;;;3.00;;
71312;SDS011;59104;44.738;20.612;2022-09-03T10:06:00;3.60;;;2.95;;
71312;SDS011;59104;44.738;20.612;2022-09-03T10:08:46;4.40;;;3.03;;
71312;SDS011;59104;44.738;20.612;2022-09-03T10:11:12;5.35;;;3.00;;
71312;SDS011;59104;44.738;20.612;2022-09-03T10:13:47;5.32;;;3.88;;
71312;SDS011;59104;44.738;20.612;2022-09-03T10:16:24;4.95;;;4.13;;
71312;SDS011;59104;44.738;20.612;2022-09-03T10:21:52;5.28;;;4.00;;
71312;SDS011;59104;44.738;20.612;2022-09-03T10:24:33;5.88;;;4.45;;
71312;SDS011;59104;44.738;20.612;2022-09-03T10:29:28;4.13;;;3.70;;
71312;SDS011;59104;44.738;20.612;2022-09-03T10:34:36;5.82;;;4.10;;
71312;SDS011;59104;44.738;20.612;2022-09-03T10:37:09;5.07;;;4.10;;
71312;SDS011;59104;44.738;20.612;2022-09-03T10:50:25;5.50;;;3.03;;
71312;SDS011;59104;44.738;20.612;2022-09-03T11:00:51;4.35;;;3.40;;
71312;SDS011;59104;44.738;20.612;2022-09-03T11:03:27;4.15;;;3.38;;
71312;SDS011;59104;44.738;20.612;2022-09-03T11:06:07;5.20;;;4.05;;
71312;SDS011;59104;44.738;20.612;2022-09-03T11:11:19;4.75;;;3.75;;
71312;SDS011;59104;44.738;20.612;2022-09-03T11:13:47;4.38;;;3.90;;
71312;SDS011;59104;44.738;20.612;2022-09-03T11:21:17;4.95;;;3.83;;
71312;SDS011;59104;44.738;20.612;2022-09-03T11:26:44;4.93;;;4.20;;
71312;SDS011;59104;44.738;20.612;2022-09-03T11:29:19;4.90;;;3.45;;
71312;SDS011;59104;44.738;20.612;2022-09-03T11:32:14;6.63;;;4.88;;
71312;SDS011;59104;44.738;20.612;2022-09-03T11:34:44;5.25;;;3.97;;
71312;SDS011;59104;44.738;20.612;2022-09-03T11:42:41;6.78;;;4.45;;
71312;SDS011;59104;44.738;20.612;2022-09-03T11:56:17;3.83;;;3.20;;
71312;SDS011;59104;44.738;20.612;2022-09-03T11:58:43;5.05;;;3.90;;
71312;SDS011;59104;44.738;20.612;2022-09-03T12:01:09;4.63;;;3.55;;
71312;SDS011;59104;44.738;20.612;2022-09-03T12:06:21;7.28;;;3.90;;
71312;SDS011;59104;44.738;20.612;2022-09-03T12:09:12;4.63;;;3.55;;
71312;SDS011;59104;44.738;20.612;2022-09-03T12:54:03;4.10;;;2.88;;
71312;SDS011;59104;44.738;20.612;2022-09-03T12:56:31;4.28;;;3.33;;
71312;SDS011;59104;44.738;20.612;2022-09-03T12:58:59;3.92;;;3.45;;
71312;SDS011;59104;44.738;20.612;2022-09-03T13:01:31;4.72;;;3.70;;
71312;SDS011;59104;44.738;20.612;2022-09-03T13:04:03;4.43;;;3.80;;
71312;SDS011;59104;44.738;20.612;2022-09-03T13:09:14;4.13;;;3.60;;
71312;SDS011;59104;44.738;20.612;2022-09-03T13:11:42;3.40;;;3.10;;
71312;SDS011;59104;44.738;20.612;2022-09-03T13:14:11;3.35;;;3.05;;
71312;SDS011;59104;44.738;20.612;2022-09-03T13:27:36;3.40;;;2.97;;
71312;SDS011;59104;44.738;20.612;2022-09-03T13:37:39;3.03;;;2.73;;
71312;SDS011;59104;44.738;20.612;2022-09-03T13:42:54;3.92;;;3.13;;
71312;SDS011;59104;44.738;20.612;2022-09-03T13:45:37;3.70;;;3.22;;
71312;SDS011;59104;44.738;20.612;2022-09-03T13:48:19;3.30;;;3.00;;
71312;SDS011;59104;44.738;20.612;2022-09-03T13:51:21;3.75;;;3.20;;
71312;SDS011;59104;44.738;20.612;2022-09-03T13:54:33;4.80;;;3.85;;
71312;SDS011;59104;44.738;20.612;2022-09-03T13:56:46;7.32;;;4.22;;
71312;SDS011;59104;44.738;20.612;2022-09-03T13:59:18;6.50;;;4.50;;
71312;SDS011;59104;44.738;20.612;2022-09-03T14:01:54;6.32;;;4.80;;
71312;SDS011;59104;44.738;20.612;2022-09-03T14:07:16;5.88;;;4.10;;
71312;SDS011;59104;44.738;20.612;2022-09-03T14:10:03;4.50;;;3.83;;
71312;SDS011;59104;44.738;20.612;2022-09-03T14:12:42;3.85;;;3.35;;
71312;SDS011;59104;44.738;20.612;2022-09-03T14:25:20;4.90;;;3.58;;
71312;SDS011;59104;44.738;20.612;2022-09-03T14:27:45;4.95;;;3.42;;
71312;SDS011;59104;44.738;20.612;2022-09-03T14:30:27;4.70;;;3.90;;
71312;SDS011;59104;44.738;20.612;2022-09-03T14:37:57;3.50;;;3.20;;
71312;SDS011;59104;44.738;20.612;2022-09-03T14:40:28;6.55;;;4.13;;
71312;SDS011;59104;44.738;20.612;2022-09-03T14:48:08;4.75;;;4.30;;
71312;SDS011;59104;44.738;20.612;2022-09-03T15:00:52;5.00;;;4.50;;
71312;SDS011;59104;44.738;20.612;2022-09-03T15:03:27;5.40;;;4.90;;
71312;SDS011;59104;44.738;20.612;2022-09-03T15:06:06;5.55;;;4.60;;
71312;SDS011;59104;44.738;20.612;2022-09-03T15:08:43;6.20;;;4.88;;
71312;SDS011;59104;44.738;20.612;2022-09-03T15:11:19;6.38;;;4.65;;
71312;SDS011;59104;44.738;20.612;2022-09-03T15:13:51;7.22;;;4.82;;
71312;SDS011;59104;44.738;20.612;2022-09-03T15:27:14;6.82;;;5.28;;
71312;SDS011;59104;44.738;20.612;2022-09-03T15:29:41;8.27;;;5.00;;
71312;SDS011;59104;44.738;20.612;2022-09-03T15:32:37;6.18;;;4.97;;
71312;SDS011;59104;44.738;20.612;2022-09-03T15:35:12;5.20;;;4.57;;
71312;SDS011;59104;44.738;20.612;2022-09-03T15:37:57;6.72;;;5.07;;
71312;SDS011;59104;44.738;20.612;2022-09-03T15:40:31;5.28;;;4.78;;
71312;SDS011;59104;44.738;20.612;2022-09-03T15:45:31;5.90;;;4.93;;
71312;SDS011;59104;44.738;20.612;2022-09-03T15:48:11;8.85;;;6.43;;
71312;SDS011;59104;44.738;20.612;2022-09-03T15:50:49;5.95;;;5.22;;
71312;SDS011;59104;44.738;20.612;2022-09-03T15:56:13;6.55;;;4.68;;
71312;SDS011;59104;44.738;20.612;2022-09-03T15:58:49;7.75;;;5.95;;
71312;SDS011;59104;44.738;20.612;2022-09-03T16:04:24;7.18;;;5.57;;
71312;SDS011;59104;44.738;20.612;2022-09-03T16:07:02;6.78;;;5.85;;
71312;SDS011;59104;44.738;20.612;2022-09-03T16:09:37;7.30;;;5.85;;
71312;SDS011;59104;44.738;20.612;2022-09-03T16:14:37;7.10;;;5.22;;
71312;SDS011;59104;44.738;20.612;2022-09-03T16:19:40;7.22;;;5.63;;
71312;SDS011;59104;44.738;20.612;2022-09-03T16:22:53;7.35;;;6.15;;
71312;SDS011;59104;44.738;20.612;2022-09-03T16:27:23;8.48;;;6.43;;
71312;SDS011;59104;44.738;20.612;2022-09-03T16:29:56;8.00;;;6.13;;
71312;SDS011;59104;44.738;20.612;2022-09-03T16:48:14;8.57;;;6.78;;
71312;SDS011;59104;44.738;20.612;2022-09-03T16:53:35;8.38;;;7.45;;
71312;SDS011;59104;44.738;20.612;2022-09-03T16:56:22;8.15;;;6.95;;
71312;SDS011;59104;44.738;20.612;2022-09-03T16:59:07;10.30;;;7.75;;
71312;SDS011;59104;44.738;20.612;2022-09-03T17:24:58;10.35;;;8.10;;
71312;SDS011;59104;44.738;20.612;2022-09-03T17:27:41;9.68;;;7.93;;
71312;SDS011;59104;44.738;20.612;2022-09-03T17:30:57;9.02;;;7.70;;
71312;SDS011;59104;44.738;20.612;2022-09-03T17:38:02;10.35;;;7.53;;
71312;SDS011;59104;44.738;20.612;2022-09-03T17:40:36;9.25;;;7.88;;
71312;SDS011;59104;44.738;20.612;2022-09-03T17:48:20;12.00;;;8.77;;
71312;SDS011;59104;44.738;20.612;2022-09-03T17:51:02;11.02;;;8.88;;
71312;SDS011;59104;44.738;20.612;2022-09-03T17:53:43;13.68;;;8.57;;
71312;SDS011;59104;44.738;20.612;2022-09-03T17:59:03;11.05;;;8.85;;
71312;SDS011;59104;44.738;20.612;2022-09-03T18:01:36;10.20;;;8.48;;
71312;SDS011;59104;44.738;20.612;2022-09-03T18:11:48;15.70;;;9.27;;
71312;SDS011;59104;44.738;20.612;2022-09-03T18:14:25;15.20;;;9.90;;
71312;SDS011;59104;44.738;20.612;2022-09-03T18:22:18;10.98;;;8.10;;
71312;SDS011;59104;44.738;20.612;2022-09-03T18:25:03;12.90;;;8.93;;
71312;SDS011;59104;44.738;20.612;2022-09-03T18:27:49;15.82;;;9.48;;
71312;SDS011;59104;44.738;20.612;2022-09-03T18:30:36;11.85;;;9.07;;
71312;SDS011;59104;44.738;20.612;2022-09-03T18:33:24;11.65;;;9.35;;
71312;SDS011;59104;44.738;20.612;2022-09-03T18:36:09;11.88;;;9.35;;
71312;SDS011;59104;44.738;20.612;2022-09-03T18:38:55;11.93;;;9.00;;
71312;SDS011;59104;44.738;20.612;2022-09-03T19:01:49;15.45;;;9.68;;
71312;SDS011;59104;44.738;20.612;2022-09-03T19:04:51;17.02;;;11.05;;
71312;SDS011;59104;44.738;20.612;2022-09-03T19:07:46;14.27;;;10.35;;
71312;SDS011;59104;44.738;20.612;2022-09-03T19:13:37;12.40;;;8.93;;
71312;SDS011;59104;44.738;20.612;2022-09-03T19:22:38;15.63;;;10.98;;
71312;SDS011;59104;44.738;20.612;2022-09-03T19:25:22;12.53;;;9.73;;
71312;SDS011;59104;44.738;20.612;2022-09-03T19:31:13;13.18;;;10.02;;
71312;SDS011;59104;44.738;20.612;2022-09-03T19:34:19;14.15;;;10.30;;
71312;SDS011;59104;44.738;20.612;2022-09-03T19:37:18;13.15;;;10.00;;
71312;SDS011;59104;44.738;20.612;2022-09-03T19:45:45;17.90;;;11.50;;
71312;SDS011;59104;44.738;20.612;2022-09-03T19:48:46;14.38;;;10.38;;
71312;SDS011;59104;44.738;20.612;2022-09-03T19:51:38;17.50;;;11.27;;
71312;SDS011;59104;44.738;20.612;2022-09-03T19:54:25;14.10;;;10.98;;
71312;SDS011;59104;44.738;20.612;2022-09-03T19:57:12;14.77;;;11.57;;
71312;SDS011;59104;44.738;20.612;2022-09-03T19:59:57;17.08;;;11.70;;
71312;SDS011;59104;44.738;20.612;2022-09-03T20:02:44;16.77;;;11.32;;
71312;SDS011;59104;44.738;20.612;2022-09-03T20:05:30;14.18;;;11.45;;
71312;SDS011;59104;44.738;20.612;2022-09-03T20:08:15;14.00;;;9.85;;
71312;SDS011;59104;44.738;20.612;2022-09-03T20:10:59;14.48;;;10.45;;
71312;SDS011;59104;44.738;20.612;2022-09-03T20:13:25;17.98;;;10.98;;
71312;SDS011;59104;44.738;20.612;2022-09-03T20:18:54;13.97;;;10.57;;
71312;SDS011;59104;44.738;20.612;2022-09-03T20:47:25;19.05;;;11.95;;
71312;SDS011;59104;44.738;20.612;2022-09-03T20:49:33;17.85;;;11.98;;
71312;SDS011;59104;44.738;20.612;2022-09-03T20:52:03;19.88;;;12.45;;
71312;SDS011;59104;44.738;20.612;2022-09-03T21:02:50;15.07;;;12.18;;
71312;SDS011;59104;44.738;20.612;2022-09-03T21:07:59;23.13;;;13.15;;
71312;SDS011;59104;44.738;20.612;2022-09-03T21:24:08;16.10;;;11.82;;
71312;SDS011;59104;44.738;20.612;2022-09-03T21:26:36;16.27;;;12.35;;
71312;SDS011;59104;44.738;20.612;2022-09-03T21:29:16;19.17;;;12.75;;
71312;SDS011;59104;44.738;20.612;2022-09-03T21:34:15;17.80;;;13.23;;
71312;SDS011;59104;44.738;20.612;2022-09-03T21:36:41;18.58;;;13.68;;
71312;SDS011;59104;44.738;20.612;2022-09-03T21:41:40;22.20;;;14.45;;
71312;SDS011;59104;44.738;20.612;2022-09-03T21:49:09;15.45;;;11.30;;
71312;SDS011;59104;44.738;20.612;2022-09-03T21:57:12;18.23;;;12.20;;
71312;SDS011;59104;44.738;20.612;2022-09-03T22:04:35;24.05;;;13.30;;
71312;SDS011;59104;44.738;20.612;2022-09-03T22:07:04;20.77;;;13.70;;
71312;SDS011;59104;44.738;20.612;2022-09-03T22:11:59;20.58;;;14.70;;
71312;SDS011;59104;44.738;20.612;2022-09-03T22:14:30;18.95;;;13.55;;
71312;SDS011;59104;44.738;20.612;2022-09-03T22:17:10;17.40;;;12.93;;
71312;SDS011;59104;44.738;20.612;2022-09-03T22:19:37;21.40;;;13.77;;
71312;SDS011;59104;44.738;20.612;2022-09-03T22:22:05;20.67;;;13.90;;